Time;durP1;ratioP1;P1;durP2;ratioP2;P2;SDS_P1;SDS_P2;PMS_P1;PMS_P2;Temp;Humidity;BMP_temperature;BMP_pressure;BME280_temperature;BME280_humidity;BME280_pressure;Samples;Min_cycle;Max_cycle;Signal;HPM_P1;HPM_P2
2020/12/08 00:00:54;;;;;;;61.80;23.85;;;-0.60;99.90;;;;;;5074325;28;20024;-81
2020/12/08 00:03:19;;;;;;;50.10;21.75;;;-0.60;99.90;;;;;;5073680;28;20113;-81
2020/12/08 00:05:45;;;;;;;52.88;24.08;;;-0.60;99.90;;;;;;5073229;28;20028;-81
2020/12/08 00:08:13;;;;;;;42.75;20.08;;;-0.70;99.90;;;;;;5073074;28;20032;-81
2020/12/08 00:10:38;;;;;;;46.25;23.45;;;-0.70;99.90;;;;;;5074138;28;20413;-81
2020/12/08 00:13:04;;;;;;;52.05;22.25;;;-0.70;99.90;;;;;;5072720;28;20047;-81
2020/12/08 00:15:30;;;;;;;43.00;21.02;;;-0.70;99.90;;;;;;5073159;28;20020;-81
2020/12/08 00:17:55;;;;;;;54.08;24.25;;;-0.70;99.90;;;;;;5074230;28;20051;-81
2020/12/08 00:20:21;;;;;;;48.40;20.63;;;-0.70;99.90;;;;;;5072773;28;20092;-80
2020/12/08 00:22:47;;;;;;;63.17;24.65;;;-0.70;99.90;;;;;;5072237;28;20038;-81
2020/12/08 00:25:14;;;;;;;46.70;21.83;;;-0.70;99.90;;;;;;5074155;28;20107;-81
2020/12/08 00:27:40;;;;;;;54.13;22.70;;;-0.70;99.90;;;;;;5074103;28;20029;-81
2020/12/08 00:30:11;;;;;;;51.13;21.70;;;-0.80;99.90;;;;;;5072788;28;20382;-81
2020/12/08 00:32:41;;;;;;;56.50;24.38;;;-0.80;99.90;;;;;;5072454;28;20046;-81
2020/12/08 00:35:08;;;;;;;48.60;22.65;;;-0.80;99.90;;;;;;5072420;28;20024;-81
2020/12/08 00:37:35;;;;;;;56.90;24.27;;;-0.80;99.90;;;;;;5072293;28;20043;-81
2020/12/08 00:40:02;;;;;;;55.40;22.13;;;-0.80;99.90;;;;;;5073546;28;20099;-81
2020/12/08 00:42:27;;;;;;;55.08;21.50;;;-0.80;99.90;;;;;;5073499;28;20062;-82
2020/12/08 00:44:53;;;;;;;45.03;20.85;;;-0.80;99.90;;;;;;5073481;28;20024;-81
2020/12/08 00:47:19;;;;;;;49.88;23.45;;;-0.80;99.90;;;;;;5072051;28;20025;-82
2020/12/08 00:49:44;;;;;;;55.95;22.13;;;-0.80;99.90;;;;;;5072395;28;20024;-81
2020/12/08 00:52:10;;;;;;;49.97;23.00;;;-0.80;99.90;;;;;;5071992;28;20013;-82
2020/12/08 00:54:36;;;;;;;45.42;22.08;;;-0.80;99.90;;;;;;5072190;28;20070;-82
2020/12/08 00:57:02;;;;;;;40.85;19.25;;;-0.80;99.90;;;;;;5072095;28;20031;-82
2020/12/08 00:59:28;;;;;;;38.55;19.35;;;-0.80;99.90;;;;;;5072300;28;20044;-82
2020/12/08 01:02:00;;;;;;;44.13;20.92;;;-0.80;99.90;;;;;;5073137;28;20060;-82
2020/12/08 01:04:25;;;;;;;55.35;23.00;;;-0.80;99.90;;;;;;5072480;28;20084;-82
2020/12/08 01:06:51;;;;;;;50.78;22.52;;;-0.90;99.90;;;;;;5072156;28;20064;-82
2020/12/08 01:09:17;;;;;;;49.40;21.02;;;-0.80;99.90;;;;;;5073034;28;20103;-82
2020/12/08 01:11:43;;;;;;;54.35;23.23;;;-0.90;99.90;;;;;;5072970;28;20465;-82
2020/12/08 01:14:13;;;;;;;44.38;18.15;;;-0.90;99.90;;;;;;5071637;28;20055;-82
2020/12/08 01:16:39;;;;;;;41.42;21.80;;;-0.90;99.90;;;;;;5070887;28;20497;-82
2020/12/08 01:19:05;;;;;;;46.58;21.40;;;-0.90;99.90;;;;;;5072885;28;20036;-82
2020/12/08 01:21:31;;;;;;;55.85;24.10;;;-1.00;99.90;;;;;;5071700;28;20055;-81
2020/12/08 01:23:56;;;;;;;51.50;23.40;;;-1.00;99.90;;;;;;5072913;28;20036;-81
2020/12/08 01:26:23;;;;;;;48.90;20.35;;;-1.00;99.90;;;;;;5072945;28;20082;-82
2020/12/08 01:28:50;;;;;;;53.95;21.13;;;-1.00;99.90;;;;;;5072944;28;20017;-80
2020/12/08 01:31:15;;;;;;;39.45;20.20;;;-1.00;99.90;;;;;;5072787;28;20032;-81
2020/12/08 01:33:41;;;;;;;47.10;20.08;;;-1.00;99.90;;;;;;5072841;28;20381;-81
2020/12/08 01:36:07;;;;;;;40.45;19.90;;;-1.00;99.90;;;;;;5072872;28;20024;-81
2020/12/08 01:38:33;;;;;;;41.08;19.35;;;-1.00;99.90;;;;;;5071897;28;20024;-81
2020/12/08 01:40:58;;;;;;;39.70;16.65;;;-1.00;99.90;;;;;;5071432;28;20436;-81
2020/12/08 01:43:24;;;;;;;51.00;21.67;;;-1.00;99.90;;;;;;5072732;28;20029;-81
2020/12/08 01:45:49;;;;;;;48.20;20.42;;;-1.00;99.90;;;;;;5070766;28;20031;-80
2020/12/08 01:48:15;;;;;;;49.72;20.70;;;-1.10;99.90;;;;;;5072121;28;20050;-80
2020/12/08 01:50:43;;;;;;;53.35;21.08;;;-1.10;99.90;;;;;;5072725;28;20020;-81
2020/12/08 01:53:12;;;;;;;56.80;22.23;;;-1.10;99.90;;;;;;5071272;28;20017;-81
2020/12/08 01:55:41;;;;;;;46.97;20.83;;;-1.10;99.90;;;;;;5071429;28;20060;-80
2020/12/08 01:58:23;;;;;;;58.30;21.50;;;-1.10;99.90;;;;;;5071538;28;20059;-80
2020/12/08 02:00:48;;;;;;;36.15;17.38;;;-1.20;99.90;;;;;;5072763;28;20020;-81
2020/12/08 02:03:18;;;;;;;50.60;20.98;;;-1.20;99.90;;;;;;5070923;28;20028;-81
2020/12/08 02:05:44;;;;;;;48.28;20.08;;;-1.20;99.90;;;;;;5072587;28;20031;-81
2020/12/08 02:08:10;;;;;;;49.72;20.65;;;-1.20;99.90;;;;;;5071440;28;20017;-81
2020/12/08 02:10:36;;;;;;;45.03;18.08;;;-1.20;99.90;;;;;;5071514;28;20390;-81
2020/12/08 02:13:07;;;;;;;42.75;21.25;;;-1.20;99.90;;;;;;5072709;28;20431;-81
2020/12/08 02:15:33;;;;;;;49.67;19.88;;;-1.20;99.90;;;;;;5071231;28;20112;-81
2020/12/08 02:17:59;;;;;;;41.50;19.02;;;-1.30;99.90;;;;;;5071267;28;20033;-81
2020/12/08 02:20:26;;;;;;;49.38;21.77;;;-1.20;99.90;;;;;;5071293;28;20025;-81
2020/12/08 02:22:58;;;;;;;45.22;22.67;;;-1.20;99.90;;;;;;5071048;28;20027;-80
2020/12/08 02:25:24;;;;;;;42.03;18.53;;;-1.20;99.90;;;;;;5071305;28;20028;-81
2020/12/08 02:27:50;;;;;;;46.15;21.15;;;-1.20;99.90;;;;;;5073347;28;20020;-81
2020/12/08 02:30:16;;;;;;;43.33;18.83;;;-1.30;99.90;;;;;;5074812;28;20115;-81
2020/12/08 02:32:41;;;;;;;43.70;19.55;;;-1.30;99.90;;;;;;5074749;28;20025;-80
2020/12/08 02:35:07;;;;;;;51.20;20.50;;;-1.20;99.90;;;;;;5074597;28;20028;-81
2020/12/08 02:37:37;;;;;;;50.60;22.17;;;-1.20;99.90;;;;;;5073943;28;20043;-80
2020/12/08 02:40:08;;;;;;;45.05;20.85;;;-1.30;99.90;;;;;;5054655;28;20017;-81
2020/12/08 02:42:34;;;;;;;57.72;24.65;;;-1.30;99.90;;;;;;5055009;28;20390;-81
2020/12/08 02:44:59;;;;;;;41.58;19.23;;;-1.30;99.90;;;;;;5054768;28;20054;-81
2020/12/08 02:47:25;;;;;;;46.83;19.77;;;-1.30;99.90;;;;;;5054595;28;20112;-80
2020/12/08 02:49:54;;;;;;;51.28;22.13;;;-1.40;99.90;;;;;;5054791;28;20029;-82
2020/12/08 02:52:20;;;;;;;46.92;21.67;;;-1.40;99.90;;;;;;5054384;28;20025;-82
2020/12/08 02:54:46;;;;;;;37.55;19.27;;;-1.40;99.90;;;;;;5055655;28;20024;-82
2020/12/08 02:57:12;;;;;;;41.35;15.57;;;-1.30;99.90;;;;;;5054173;28;20025;-81
2020/12/08 02:59:37;;;;;;;37.95;16.02;;;-1.40;99.90;;;;;;5055517;28;20357;-81
2020/12/08 03:02:03;;;;;;;35.97;16.67;;;-1.40;99.90;;;;;;5054440;28;20475;-81
2020/12/08 03:04:29;;;;;;;40.55;18.95;;;-1.40;99.90;;;;;;5052189;28;20021;-81
2020/12/08 03:06:57;;;;;;;38.63;17.27;;;-1.40;99.90;;;;;;5071827;28;20100;-81
2020/12/08 03:09:22;;;;;;;47.75;18.67;;;-1.40;99.90;;;;;;5073920;28;20025;-81
2020/12/08 03:11:48;;;;;;;40.42;15.90;;;-1.40;99.90;;;;;;5074537;28;20039;-81
2020/12/08 03:14:14;;;;;;;35.55;15.43;;;-1.40;99.90;;;;;;5072354;28;20017;-81
2020/12/08 03:16:39;;;;;;;43.33;17.13;;;-1.40;99.90;;;;;;5073455;28;20024;-81
2020/12/08 03:19:05;;;;;;;38.05;16.83;;;-1.40;99.90;;;;;;5072937;28;20070;-80
2020/12/08 03:21:35;;;;;;;49.38;20.63;;;-1.40;99.90;;;;;;5073856;28;20028;-80
2020/12/08 03:24:01;;;;;;;35.78;15.88;;;-1.40;99.90;;;;;;5074789;28;20028;-81
2020/12/08 03:26:27;;;;;;;38.15;17.70;;;-1.50;99.90;;;;;;5072926;28;20024;-81
2020/12/08 03:28:53;;;;;;;37.00;18.17;;;-1.50;99.90;;;;;;5073797;28;20127;-82
2020/12/08 03:31:19;;;;;;;31.15;16.48;;;-1.50;99.90;;;;;;5073791;28;20027;-82
2020/12/08 03:33:45;;;;;;;45.65;19.92;;;-1.50;99.90;;;;;;5074841;28;20051;-81
2020/12/08 03:36:15;;;;;;;42.28;20.42;;;-1.50;99.90;;;;;;5075186;28;20462;-81
2020/12/08 03:38:44;;;;;;;45.63;20.02;;;-1.50;99.90;;;;;;5072240;28;20024;-81
2020/12/08 03:41:10;;;;;;;39.78;17.98;;;-1.50;99.90;;;;;;5073810;28;20028;-81
2020/12/08 03:43:35;;;;;;;40.38;19.30;;;-1.60;99.90;;;;;;5073393;28;20378;-81
2020/12/08 03:46:01;;;;;;;31.13;14.73;;;-1.50;99.90;;;;;;5075090;28;20059;-81
2020/12/08 03:48:27;;;;;;;48.75;19.08;;;-1.60;99.90;;;;;;5073447;28;20029;-80
2020/12/08 03:50:58;;;;;;;40.35;17.27;;;-1.60;99.90;;;;;;5074105;28;20017;-81
2020/12/08 03:53:24;;;;;;;44.92;18.67;;;-1.50;99.90;;;;;;5073590;28;20034;-81
2020/12/08 03:55:50;;;;;;;46.50;18.60;;;-1.50;99.90;;;;;;5073462;28;20107;-81
2020/12/08 03:58:15;;;;;;;33.95;15.73;;;-1.50;99.90;;;;;;5072677;28;20516;-81
2020/12/08 04:00:42;;;;;;;35.70;17.33;;;-1.60;99.90;;;;;;5074057;28;20066;-81
2020/12/08 04:03:08;;;;;;;41.45;17.60;;;-1.60;99.90;;;;;;5073016;28;20104;-81
2020/12/08 04:05:34;;;;;;;39.83;19.80;;;-1.60;99.90;;;;;;5073043;28;20025;-81
2020/12/08 04:07:59;;;;;;;36.92;16.90;;;-1.60;99.90;;;;;;5072772;28;20561;-81
2020/12/08 04:10:25;;;;;;;35.78;15.48;;;-1.60;99.90;;;;;;5072653;28;20075;-81
2020/12/08 04:12:50;;;;;;;39.83;16.95;;;-1.60;99.90;;;;;;5072895;28;20028;-81
2020/12/08 04:15:16;;;;;;;33.38;15.55;;;-1.60;99.90;;;;;;5074078;28;20520;-80
2020/12/08 04:17:42;;;;;;;42.10;15.88;;;-1.70;99.90;;;;;;5074018;28;20032;-80
2020/12/08 04:20:07;;;;;;;36.47;17.77;;;-1.70;99.90;;;;;;5073988;28;20025;-80
2020/12/08 04:22:34;;;;;;;35.67;17.10;;;-1.70;99.90;;;;;;5074025;28;20443;-80
2020/12/08 04:24:59;;;;;;;29.33;15.38;;;-1.70;99.90;;;;;;5073890;28;20024;-80
2020/12/08 04:27:25;;;;;;;25.77;13.40;;;-1.70;99.90;;;;;;5072486;28;20592;-80
2020/12/08 04:29:51;;;;;;;34.38;15.07;;;-1.70;99.90;;;;;;5072539;28;20024;-81
2020/12/08 04:32:16;;;;;;;29.55;12.00;;;-1.70;99.90;;;;;;5073702;28;20032;-81
2020/12/08 04:34:42;;;;;;;37.80;16.25;;;-1.80;99.90;;;;;;5072823;28;20409;-80
2020/12/08 04:37:08;;;;;;;36.13;14.88;;;-1.80;99.90;;;;;;5072176;28;20021;-81
2020/12/08 04:39:34;;;;;;;41.45;16.83;;;-1.80;99.90;;;;;;5072273;28;20040;-81
2020/12/08 04:42:00;;;;;;;41.78;18.13;;;-1.70;99.90;;;;;;5072352;28;20025;-80
2020/12/08 04:44:26;;;;;;;46.53;18.77;;;-1.70;99.90;;;;;;5073585;28;20059;-81
2020/12/08 04:46:56;;;;;;;40.30;17.02;;;-1.80;99.90;;;;;;5072412;28;20029;-81
2020/12/08 04:49:25;;;;;;;43.55;18.63;;;-1.80;99.90;;;;;;5073347;28;20021;-81
2020/12/08 04:51:51;;;;;;;33.28;15.18;;;-1.80;99.90;;;;;;5072409;28;20066;-81
2020/12/08 04:54:17;;;;;;;37.50;17.27;;;-1.80;99.90;;;;;;5072271;28;20466;-80
2020/12/08 04:56:46;;;;;;;39.50;18.63;;;-1.80;99.90;;;;;;5073326;28;20528;-80
2020/12/08 04:59:22;;;;;;;29.27;15.23;;;-1.80;99.90;;;;;;5071995;28;20123;-80
2020/12/08 05:01:49;;;;;;;33.28;15.85;;;-1.90;99.90;;;;;;5071897;28;20027;-81
2020/12/08 05:04:25;;;;;;;29.88;14.73;;;-1.90;99.90;;;;;;5071923;28;20482;-81
2020/12/08 05:07:01;;;;;;;30.73;15.43;;;-1.90;99.90;;;;;;5071974;28;20028;-80
2020/12/08 05:09:27;;;;;;;39.20;15.85;;;-2.00;99.90;;;;;;5071807;28;20028;-80
2020/12/08 05:11:57;;;;;;;41.38;15.60;;;-1.90;99.90;;;;;;5071768;28;20501;-80
2020/12/08 05:14:23;;;;;;;34.47;15.32;;;-1.90;99.90;;;;;;5073185;28;20024;-81
2020/12/08 05:16:48;;;;;;;41.08;16.67;;;-2.00;99.90;;;;;;5072095;28;20116;-81
2020/12/08 05:19:15;;;;;;;40.80;19.17;;;-2.00;99.90;;;;;;5071740;28;20435;-81
2020/12/08 05:21:50;;;;;;;39.95;16.83;;;-1.90;99.90;;;;;;5071312;28;20071;-80
2020/12/08 05:24:29;;;;;;;41.40;17.65;;;-2.00;99.90;;;;;;5072936;28;20048;-81
2020/12/08 05:26:57;;;;;;;42.58;18.48;;;-2.00;99.90;;;;;;5071617;28;20028;-81
2020/12/08 05:29:22;;;;;;;30.48;16.52;;;-2.00;99.90;;;;;;5071679;28;20387;-79
2020/12/08 05:31:50;;;;;;;39.58;17.88;;;-2.00;99.90;;;;;;5071489;28;20029;-80
2020/12/08 05:34:18;;;;;;;40.88;17.98;;;-2.00;99.90;;;;;;5071059;28;20482;-81
2020/12/08 05:36:49;;;;;;;31.60;17.15;;;-2.00;99.90;;;;;;5070730;28;20025;-80
2020/12/08 05:39:20;;;;;;;44.53;16.63;;;-2.00;99.90;;;;;;5069790;28;20120;-81
2020/12/08 05:41:46;;;;;;;42.15;19.70;;;-2.00;99.90;;;;;;5072076;28;20081;-81
2020/12/08 05:44:23;;;;;;;40.30;17.10;;;-2.00;99.90;;;;;;5071392;28;20017;-80
2020/12/08 05:46:50;;;;;;;36.33;17.80;;;-2.00;99.90;;;;;;5071789;28;20470;-81
2020/12/08 05:49:16;;;;;;;34.10;14.93;;;-2.10;99.90;;;;;;5071391;28;20012;-81
2020/12/08 05:51:50;;;;;;;42.58;16.85;;;-2.00;99.90;;;;;;5071609;28;20378;-81
2020/12/08 05:54:20;;;;;;;35.85;16.27;;;-2.00;99.90;;;;;;5071470;28;20501;-81
2020/12/08 05:56:53;;;;;;;37.80;17.15;;;-2.10;99.90;;;;;;5071363;28;20025;-81
2020/12/08 05:59:25;;;;;;;;;;;-2.10;99.90;;;;;;5071791;28;20398;-81
2020/12/08 06:01:51;;;;;;;41.03;17.33;;;-2.00;99.90;;;;;;5073463;28;19995;-81
2020/12/08 06:04:16;;;;;;;42.05;16.70;;;-2.00;99.90;;;;;;5074819;28;20357;-81
2020/12/08 06:06:49;;;;;;;42.22;17.73;;;-2.00;99.90;;;;;;5076323;28;20046;-81
2020/12/08 06:09:25;;;;;;;;;;;-2.10;99.90;;;;;;5074532;28;20023;-81
2020/12/08 06:11:51;;;;;;;34.35;16.17;;;-2.10;99.90;;;;;;5075345;28;19927;-81
2020/12/08 06:14:27;;;;;;;42.40;18.08;;;-2.10;99.90;;;;;;5075124;28;20474;-81
2020/12/08 06:16:59;;;;;;;33.65;14.25;;;-2.10;99.90;;;;;;5074989;28;20027;-81
2020/12/08 06:19:25;;;;;;;35.08;14.43;;;-2.10;99.90;;;;;;5076365;28;20490;-82
2020/12/08 06:21:50;;;;;;;35.95;15.50;;;-2.10;99.90;;;;;;5075666;28;20024;-80
2020/12/08 06:24:16;;;;;;;47.45;18.50;;;-2.00;99.90;;;;;;5075074;28;20444;-80
2020/12/08 06:26:41;;;;;;;39.85;17.23;;;-2.00;99.90;;;;;;5077651;28;20034;-80
2020/12/08 06:29:10;;;;;;;40.08;15.57;;;-2.00;99.90;;;;;;5074741;28;20063;-80
2020/12/08 06:32:02;;;;;;;36.40;18.38;;;-2.00;99.90;;;;;;5075729;28;20536;-80
2020/12/08 06:34:31;;;;;;;44.55;19.60;;;-2.00;99.90;;;;;;5072974;28;20115;-81
2020/12/08 06:37:09;;;;;;;39.80;17.98;;;-2.00;99.90;;;;;;5074772;28;20074;-81
2020/12/08 06:39:35;;;;;;;41.72;17.27;;;-2.00;99.90;;;;;;5076188;28;20066;-80
2020/12/08 06:42:13;;;;;;;49.75;17.38;;;-2.00;99.90;;;;;;5075757;28;20028;-81
2020/12/08 06:44:39;;;;;;;43.55;16.65;;;-2.00;99.90;;;;;;5074626;28;20051;-78
2020/12/08 06:47:05;;;;;;;41.53;18.08;;;-2.00;99.90;;;;;;5075085;28;20665;-81
2020/12/08 06:49:36;;;;;;;40.35;18.05;;;-2.00;99.90;;;;;;5074324;28;20108;-81
2020/12/08 06:52:02;;;;;;;46.95;20.13;;;-2.00;99.90;;;;;;5061599;28;20856;-81
2020/12/08 06:54:27;;;;;;;49.38;19.35;;;-2.00;99.90;;;;;;5063570;28;20049;-80
2020/12/08 06:57:05;;;;;;;46.40;19.58;;;-2.00;99.90;;;;;;5057364;28;20028;-81
2020/12/08 06:59:30;;;;;;;46.50;19.55;;;-2.00;99.90;;;;;;5055709;28;20033;-81
2020/12/08 07:01:57;;;;;;;43.42;19.23;;;-2.00;99.90;;;;;;5062116;28;20147;-82
2020/12/08 07:04:25;;;;;;;33.55;16.52;;;-2.00;99.90;;;;;;5073977;28;20016;-81
2020/12/08 07:06:51;;;;;;;44.45;20.95;;;-2.00;99.90;;;;;;5073545;28;20039;-81
2020/12/08 07:09:18;;;;;;;45.65;18.58;;;-2.00;99.90;;;;;;5075333;28;20036;-81
2020/12/08 07:11:43;;;;;;;47.58;18.58;;;-2.00;99.90;;;;;;5073918;28;20024;-81
2020/12/08 07:14:09;;;;;;;42.35;18.95;;;-1.90;99.90;;;;;;5074046;28;20390;-81
2020/12/08 07:16:36;;;;;;;37.53;16.52;;;-2.00;99.90;;;;;;5075644;28;20032;-81
2020/12/08 07:19:06;;;;;;;40.60;19.02;;;-1.90;99.90;;;;;;5074250;28;20417;-81
2020/12/08 07:21:32;;;;;;;52.40;19.88;;;-1.90;99.90;;;;;;5073942;28;20085;-80
2020/12/08 07:23:57;;;;;;;47.53;19.70;;;-1.90;99.90;;;;;;5075321;28;20053;-81
2020/12/08 07:26:26;;;;;;;41.90;18.27;;;-1.90;99.90;;;;;;5075095;28;20031;-81
2020/12/08 07:28:53;;;;;;;42.80;16.92;;;-1.90;99.90;;;;;;5074262;28;20025;-81
2020/12/08 07:31:24;;;;;;;41.92;18.70;;;-1.80;99.90;;;;;;5073354;28;20012;-80
2020/12/08 07:33:50;;;;;;;50.58;20.35;;;-1.80;99.90;;;;;;5073017;28;20021;-81
2020/12/08 07:36:21;;;;;;;34.70;17.23;;;-1.80;99.90;;;;;;5073634;28;20537;-81
2020/12/08 07:38:50;;;;;;;53.90;22.88;;;-1.80;99.90;;;;;;5053362;28;20486;-81
2020/12/08 07:41:20;;;;;;;47.72;20.83;;;-1.70;99.90;;;;;;5053486;28;20017;-81
2020/12/08 07:43:46;;;;;;;50.45;20.38;;;-1.70;99.90;;;;;;5053456;28;20032;-80
2020/12/08 07:46:11;;;;;;;40.67;19.98;;;-1.70;99.90;;;;;;5053315;28;20029;-81
2020/12/08 07:48:37;;;;;;;61.72;26.13;;;-1.70;99.90;;;;;;5060670;28;20055;-82
2020/12/08 07:51:03;;;;;;;47.75;22.25;;;-1.60;99.90;;;;;;5073387;28;20023;-80
2020/12/08 07:53:36;;;;;;;45.83;22.52;;;-1.60;99.90;;;;;;5073244;28;20071;-81
2020/12/08 07:56:03;;;;;;;48.33;22.80;;;-1.60;99.90;;;;;;5073713;28;20028;-81
2020/12/08 07:58:30;;;;;;;58.83;23.10;;;-1.60;99.90;;;;;;5073042;28;20112;-82
2020/12/08 08:00:57;;;;;;;64.15;25.67;;;-1.50;99.90;;;;;;5074254;28;20021;-82
2020/12/08 08:03:23;;;;;;;48.25;23.42;;;-1.50;99.90;;;;;;5074239;28;20485;-82
2020/12/08 08:05:49;;;;;;;49.75;19.88;;;-1.50;99.90;;;;;;5074243;28;20091;-82
2020/12/08 08:08:15;;;;;;;56.60;24.02;;;-1.50;99.90;;;;;;5074014;28;20067;-82
2020/12/08 08:10:41;;;;;;;65.85;25.55;;;-1.40;99.90;;;;;;5072610;28;20032;-82
2020/12/08 08:13:06;;;;;;;61.00;25.65;;;-1.50;99.90;;;;;;5072808;28;20032;-82
2020/12/08 08:15:32;;;;;;;53.92;23.27;;;-1.40;99.90;;;;;;5072728;28;20013;-82
2020/12/08 08:17:58;;;;;;;58.30;24.92;;;-1.40;99.90;;;;;;5073391;28;20390;-82
2020/12/08 08:20:23;;;;;;;47.20;22.30;;;-1.40;99.90;;;;;;5073930;28;20028;-82
2020/12/08 08:22:50;;;;;;;58.08;22.10;;;-1.30;99.90;;;;;;5073389;28;20028;-83
2020/12/08 08:25:15;;;;;;;66.68;23.92;;;-1.30;99.90;;;;;;5073260;28;20060;-82
2020/12/08 08:27:41;;;;;;;56.28;24.13;;;-1.30;99.90;;;;;;5073599;28;20094;-81
2020/12/08 08:30:07;;;;;;;54.35;22.40;;;-1.20;99.90;;;;;;5073319;28;20071;-82
2020/12/08 08:32:33;;;;;;;53.03;22.35;;;-1.20;99.90;;;;;;5055897;28;20029;-82
2020/12/08 08:34:59;;;;;;;49.13;22.17;;;-1.10;99.90;;;;;;5073649;28;20028;-83
2020/12/08 08:37:24;;;;;;;54.55;21.08;;;-1.10;99.90;;;;;;5073359;28;20036;-81
2020/12/08 08:39:50;;;;;;;51.13;24.17;;;-1.10;99.90;;;;;;5073676;28;20406;-82
2020/12/08 08:42:16;;;;;;;39.22;18.40;;;-1.00;99.90;;;;;;5073426;28;20104;-82
2020/12/08 08:44:41;;;;;;;48.33;22.38;;;-1.10;99.90;;;;;;5073338;28;20433;-82
2020/12/08 08:47:07;;;;;;;50.97;23.98;;;-1.10;99.90;;;;;;5073349;28;20541;-82
2020/12/08 08:49:33;;;;;;;53.35;22.90;;;-1.00;99.90;;;;;;5072060;28;20027;-82
2020/12/08 08:51:58;;;;;;;45.05;20.98;;;-1.00;99.90;;;;;;5073439;28;20081;-82
2020/12/08 08:54:24;;;;;;;45.58;20.67;;;-1.00;99.90;;;;;;5073083;28;20100;-82
2020/12/08 08:56:54;;;;;;;41.10;17.70;;;-1.00;99.90;;;;;;5073085;28;20025;-82
2020/12/08 08:59:20;;;;;;;51.47;21.58;;;-1.00;99.90;;;;;;5072233;28;20036;-82
2020/12/08 09:01:45;;;;;;;41.83;19.13;;;-1.00;99.90;;;;;;5072948;28;20398;-83
2020/12/08 09:04:11;;;;;;;39.53;18.25;;;-1.00;99.90;;;;;;5071861;28;20189;-82
2020/12/08 09:06:36;;;;;;;41.50;19.17;;;-0.90;99.90;;;;;;5055562;28;20028;-82
2020/12/08 09:09:02;;;;;;;45.08;19.52;;;-0.90;99.90;;;;;;5073311;28;20016;-83
2020/12/08 09:11:28;;;;;;;38.28;17.42;;;-1.00;99.90;;;;;;5073123;28;20035;-82
2020/12/08 09:13:55;;;;;;;43.42;19.73;;;-0.90;99.90;;;;;;5071651;28;20040;-82
2020/12/08 09:16:24;;;;;;;73.28;31.17;;;-0.90;99.90;;;;;;5071605;28;20470;-82
2020/12/08 09:18:50;;;;;;;54.63;22.88;;;-0.90;99.90;;;;;;5071491;28;20120;-81
2020/12/08 09:21:16;;;;;;;67.47;31.25;;;-0.80;99.90;;;;;;5072667;28;20045;-82
2020/12/08 09:23:42;;;;;;;83.15;34.88;;;-0.80;99.90;;;;;;5072650;28;20031;-82
2020/12/08 09:26:09;;;;;;;126.65;48.35;;;-0.90;99.90;;;;;;5072652;28;20024;-83
2020/12/08 09:28:34;;;;;;;139.35;52.60;;;-0.90;99.90;;;;;;5072776;28;20489;-82
2020/12/08 09:31:00;;;;;;;178.02;65.18;;;-0.80;99.90;;;;;;5071450;28;20024;-83
2020/12/08 09:33:27;;;;;;;117.50;42.70;;;-0.80;99.90;;;;;;5072603;28;20031;-83
2020/12/08 09:35:54;;;;;;;199.63;72.75;;;-0.80;99.90;;;;;;5072422;28;20066;-83
2020/12/08 09:38:20;;;;;;;131.07;54.60;;;-0.80;99.90;;;;;;5072108;28;20477;-82
2020/12/08 09:40:45;;;;;;;166.45;65.10;;;-0.80;99.90;;;;;;5072552;28;20032;-82
2020/12/08 09:43:11;;;;;;;99.88;40.63;;;-0.70;99.90;;;;;;5072431;28;20021;-83
2020/12/08 09:45:38;;;;;;;84.72;35.53;;;-0.70;99.90;;;;;;5067619;28;20024;-82
2020/12/08 09:48:04;;;;;;;66.93;28.75;;;-0.60;99.90;;;;;;5072628;28;20025;-83
2020/12/08 09:50:31;;;;;;;63.15;26.45;;;-0.60;99.90;;;;;;5071310;28;20466;-83
2020/12/08 09:52:56;;;;;;;54.20;22.38;;;-0.60;99.90;;;;;;5054202;28;20039;-83
2020/12/08 09:55:23;;;;;;;49.22;23.38;;;-0.60;99.90;;;;;;5072426;28;20028;-83
2020/12/08 09:57:49;;;;;;;45.30;21.10;;;-0.60;99.90;;;;;;5072412;28;20033;-83
2020/12/08 10:00:15;;;;;;;60.75;25.75;;;-0.60;99.90;;;;;;5072445;28;20025;-83
2020/12/08 10:02:40;;;;;;;51.88;22.23;;;-0.60;99.90;;;;;;5071439;28;20027;-83
2020/12/08 10:05:06;;;;;;;56.72;22.98;;;-0.70;99.90;;;;;;5072305;28;20449;-83
2020/12/08 10:07:32;;;;;;;51.97;24.45;;;-0.60;99.90;;;;;;5037933;28;20028;-83
2020/12/08 10:09:58;;;;;;;64.68;27.10;;;-0.60;99.90;;;;;;5070922;28;20051;-82
2020/12/08 10:12:23;;;;;;;63.95;27.55;;;-0.60;99.90;;;;;;5072128;28;20032;-84
2020/12/08 10:14:49;;;;;;;104.40;37.10;;;-0.50;99.90;;;;;;5071504;28;20029;-85
2020/12/08 10:17:16;;;;;;;81.22;28.40;;;-0.60;99.90;;;;;;5072350;28;20028;-85
2020/12/08 10:19:42;;;;;;;68.38;27.23;;;-0.50;99.90;;;;;;5071206;28;20027;-84
2020/12/08 10:22:08;;;;;;;66.88;24.10;;;-0.40;99.90;;;;;;5071464;28;20393;-85
2020/12/08 10:24:33;;;;;;;127.65;49.15;;;-0.30;99.90;;;;;;5072548;28;20029;-84
2020/12/08 10:26:59;;;;;;;130.20;44.08;;;-0.40;99.90;;;;;;5072367;28;20481;-85
2020/12/08 10:29:25;;;;;;;132.75;46.53;;;-0.40;99.90;;;;;;5071584;28;20402;-83
2020/12/08 10:31:52;;;;;;;129.68;42.53;;;-0.40;99.90;;;;;;5070840;28;20032;-84
2020/12/08 10:34:19;;;;;;;77.80;27.65;;;-0.40;99.90;;;;;;5071133;28;20016;-82
2020/12/08 10:36:46;;;;;;;70.28;26.02;;;-0.40;99.90;;;;;;5070877;28;20028;-83
2020/12/08 10:39:13;;;;;;;72.07;28.10;;;-0.40;99.90;;;;;;5071976;28;20036;-83
2020/12/08 10:41:38;;;;;;;68.57;28.70;;;-0.40;99.90;;;;;;5071918;28;20052;-83
2020/12/08 10:44:06;;;;;;;85.97;30.83;;;-0.40;99.90;;;;;;5072515;28;20063;-83
2020/12/08 10:46:36;;;;;;;116.70;39.22;;;-0.30;99.90;;;;;;5072277;28;20017;-84
2020/12/08 10:49:02;;;;;;;116.10;40.10;;;-0.30;99.90;;;;;;5073647;28;20028;-84
2020/12/08 10:51:29;;;;;;;64.13;23.42;;;-0.20;99.90;;;;;;5075911;28;20028;-84
2020/12/08 10:53:55;;;;;;;73.80;28.42;;;-0.20;99.90;;;;;;5075028;28;20524;-84
2020/12/08 10:56:21;;;;;;;55.85;24.20;;;-0.20;99.90;;;;;;5076197;28;20021;-84
2020/12/08 10:58:48;;;;;;;148.52;54.53;;;-0.20;99.90;;;;;;5074381;28;20033;-84
2020/12/08 11:01:21;;;;;;;215.30;68.97;;;-0.20;99.90;;;;;;5074597;28;20402;-84
2020/12/08 11:03:47;;;;;;;234.52;74.95;;;-0.20;99.90;;;;;;5057875;28;20024;-84
2020/12/08 11:06:27;;;;;;;164.30;55.15;;;-0.20;99.90;;;;;;5074207;28;20043;-85
2020/12/08 11:08:54;;;;;;;133.80;45.97;;;-0.10;99.90;;;;;;5074542;28;20020;-83
2020/12/08 11:11:28;;;;;;;128.25;46.42;;;-0.10;99.90;;;;;;5063979;28;20445;-83
2020/12/08 11:13:56;;;;;;;147.05;50.25;;;-0.10;99.90;;;;;;5074169;28;20036;-83
2020/12/08 11:16:23;;;;;;;85.00;33.90;;;-0.10;99.90;;;;;;5074327;28;20528;-82
2020/12/08 11:18:49;;;;;;;158.93;53.40;;;0.00;99.90;;;;;;5075188;28;20029;-82
2020/12/08 11:21:21;;;;;;;191.82;63.08;;;0.10;99.90;;;;;;5075190;28;20032;-83
2020/12/08 11:23:47;;;;;;;108.85;40.42;;;0.10;99.90;;;;;;5075247;28;20021;-83
2020/12/08 11:26:13;;;;;;;85.47;34.05;;;0.20;99.90;;;;;;5073811;28;20030;-81
2020/12/08 11:28:40;;;;;;;111.38;37.83;;;0.20;99.90;;;;;;5075052;28;20528;-83
2020/12/08 11:31:06;;;;;;;128.02;45.40;;;0.20;99.90;;;;;;5074994;28;20020;-82
2020/12/08 11:33:32;;;;;;;87.63;34.30;;;0.10;99.90;;;;;;5073696;28;20024;-83
2020/12/08 11:35:58;;;;;;;96.93;36.55;;;0.20;99.90;;;;;;5074943;28;20024;-82
2020/12/08 11:38:24;;;;;;;63.03;24.67;;;0.20;99.90;;;;;;5073576;28;20040;-83
2020/12/08 11:40:49;;;;;;;60.58;25.90;;;0.30;99.90;;;;;;5073663;28;20374;-83
2020/12/08 11:43:15;;;;;;;60.13;26.23;;;0.40;99.90;;;;;;5073256;28;20029;-82
2020/12/08 11:45:41;;;;;;;65.60;29.88;;;0.50;99.90;;;;;;5073822;28;20016;-82
2020/12/08 11:48:07;;;;;;;47.28;24.33;;;0.60;99.90;;;;;;5074907;28;20013;-82
2020/12/08 11:50:32;;;;;;;77.68;30.00;;;0.80;99.90;;;;;;5073405;28;20428;-82
2020/12/08 11:52:58;;;;;;;58.22;23.33;;;0.80;99.90;;;;;;5073574;28;20124;-82
2020/12/08 11:55:23;;;;;;;55.72;25.13;;;0.90;99.90;;;;;;5073115;28;20020;-82
2020/12/08 11:57:49;;;;;;;54.63;24.27;;;1.00;99.90;;;;;;5074386;28;20516;-83
2020/12/08 12:00:15;;;;;;;82.00;29.98;;;1.00;99.90;;;;;;5072463;28;20020;-82
2020/12/08 12:02:41;;;;;;;94.82;35.75;;;1.00;99.90;;;;;;5073348;28;20020;-82
2020/12/08 12:05:07;;;;;;;480.20;162.50;;;0.90;99.90;;;;;;5073412;28;20052;-82
2020/12/08 12:07:33;;;;;;;314.15;97.50;;;0.90;99.90;;;;;;5072922;28;20020;-83
2020/12/08 12:10:16;;;;;;;533.13;184.52;;;0.80;99.90;;;;;;5073212;28;20021;-82
2020/12/08 12:12:42;;;;;;;309.45;91.80;;;0.80;99.90;;;;;;5072803;28;20431;-83
2020/12/08 12:15:08;;;;;;;344.05;100.82;;;0.80;99.90;;;;;;5072768;28;20028;-82
2020/12/08 12:17:34;;;;;;;184.35;56.60;;;0.90;99.90;;;;;;5072738;28;20077;-83
2020/12/08 12:19:59;;;;;;;185.57;52.78;;;1.00;99.90;;;;;;5074035;28;20024;-83
2020/12/08 12:22:26;;;;;;;273.75;79.82;;;1.10;99.90;;;;;;5066582;28;20020;-82
2020/12/08 12:24:53;;;;;;;315.17;93.50;;;1.00;99.90;;;;;;5051402;28;20027;-82
2020/12/08 12:27:21;;;;;;;102.60;34.35;;;1.00;99.90;;;;;;5051737;28;20021;-83